QLK86D YWYY-YMML
Flight info
| Callsign | QLK86D |
|---|---|
| Flight time | 0h 49m |
| Altitude | 20000 |
| Route | WYY V294 ONAGI H215 RAZZI W687 ML |
| Aircraft | DH8D/M-SDFGHRZ/LB1 |
Departure
| Time | 2026-04-17 08:22 |
|---|---|
| Airport | Wynyard Airport (YWYY) |
Arrival
| Time | 2026-04-17 09:11 |
|---|---|
| Airport | Melbourne Airport (YMML) |
| Time | Latitude | Longitude | Altitude | Speed | Heading |
|---|---|---|---|---|---|
| 2026-04-17 07:56 | -40.99373 | 145.72492 | 67 ft | 0 kts | 273° |
| 2026-04-17 08:14 | -40.99414 | 145.72540 | 65 ft | 10 kts | 130° |
| 2026-04-17 08:14 | -40.99553 | 145.72537 | 66 ft | 20 kts | 186° |
| 2026-04-17 08:14 | -40.99589 | 145.72531 | 67 ft | 0 kts | 187° |
| 2026-04-17 08:15 | -40.99598 | 145.72531 | 68 ft | 5 kts | 186° |
| 2026-04-17 08:15 | -40.99674 | 145.72501 | 70 ft | 16 kts | 229° |
| 2026-04-17 08:16 | -40.99685 | 145.72426 | 71 ft | 1 kts | 84° |
| 2026-04-17 08:16 | -40.99686 | 145.72452 | 70 ft | 0 kts | 98° |
| 2026-04-17 08:21 | -40.99687 | 145.72464 | 70 ft | 9 kts | 98° |
| 2026-04-17 08:21 | -40.99742 | 145.72900 | 65 ft | 97 kts | 99° |
| 2026-04-17 08:21 | -40.99892 | 145.74101 | 160 ft | 151 kts | 103° |
| 2026-04-17 08:21 | -41.00093 | 145.75545 | 637 ft | 171 kts | 103° |
| 2026-04-17 08:22 | -40.99801 | 145.77100 | 1174 ft | 190 kts | 53° |
| 2026-04-17 08:22 | -40.98725 | 145.78206 | 1623 ft | 210 kts | 17° |
| 2026-04-17 08:22 | -40.97284 | 145.78157 | 2143 ft | 215 kts | 336° |
| 2026-04-17 08:22 | -40.95864 | 145.77493 | 2977 ft | 214 kts | 333° |
| 2026-04-17 08:23 | -40.94772 | 145.76327 | 3669 ft | 201 kts | 290° |
| 2026-04-17 08:23 | -40.94690 | 145.74629 | 4440 ft | 185 kts | 244° |
| 2026-04-17 08:23 | -40.95493 | 145.73427 | 5304 ft | 178 kts | 222° |
| 2026-04-17 08:23 | -40.95882 | 145.71970 | 6205 ft | 190 kts | 270° |
| 2026-04-17 08:24 | -40.95098 | 145.70378 | 6703 ft | 224 kts | 302° |
| 2026-04-17 08:24 | -40.93805 | 145.69165 | 7542 ft | 243 kts | 334° |
| 2026-04-17 08:24 | -40.92091 | 145.68936 | 8268 ft | 257 kts | 353° |
| 2026-04-17 08:24 | -40.90271 | 145.68933 | 9046 ft | 259 kts | 354° |
| 2026-04-17 08:25 | -40.88473 | 145.68932 | 9601 ft | 266 kts | 354° |
| 2026-04-17 08:25 | -40.86622 | 145.68929 | 10262 ft | 266 kts | 354° |
| 2026-04-17 08:25 | -40.84768 | 145.68924 | 10864 ft | 269 kts | 354° |
| 2026-04-17 08:25 | -40.82910 | 145.68918 | 11476 ft | 271 kts | 354° |
| 2026-04-17 08:26 | -40.81019 | 145.68909 | 12093 ft | 273 kts | 354° |
| 2026-04-17 08:26 | -40.79134 | 145.68901 | 12736 ft | 274 kts | 354° |
| 2026-04-17 08:26 | -40.77211 | 145.68889 | 13278 ft | 277 kts | 354° |
| 2026-04-17 08:26 | -40.75258 | 145.68877 | 13880 ft | 278 kts | 354° |
| 2026-04-17 08:27 | -40.73317 | 145.68864 | 14407 ft | 282 kts | 354° |
| 2026-04-17 08:27 | -40.71366 | 145.68852 | 14952 ft | 283 kts | 354° |
| 2026-04-17 08:27 | -40.69392 | 145.68839 | 15430 ft | 287 kts | 355° |
| 2026-04-17 08:27 | -40.67384 | 145.68825 | 15923 ft | 289 kts | 355° |
| 2026-04-17 08:28 | -40.65371 | 145.68811 | 16404 ft | 291 kts | 355° |
| 2026-04-17 08:28 | -40.63347 | 145.68797 | 16873 ft | 294 kts | 354° |
| 2026-04-17 08:28 | -40.61292 | 145.68784 | 17305 ft | 297 kts | 355° |
| 2026-04-17 08:28 | -40.59219 | 145.68768 | 17721 ft | 300 kts | 355° |
| 2026-04-17 08:29 | -40.57125 | 145.68755 | 18166 ft | 301 kts | 355° |
| 2026-04-17 08:29 | -40.55002 | 145.68739 | 18549 ft | 304 kts | 355° |
| 2026-04-17 08:29 | -40.52881 | 145.68726 | 18961 ft | 306 kts | 355° |
| 2026-04-17 08:29 | -40.50756 | 145.68710 | 19367 ft | 307 kts | 355° |
| 2026-04-17 08:30 | -40.48634 | 145.68697 | 19722 ft | 311 kts | 355° |
| 2026-04-17 08:30 | -40.46433 | 145.68680 | 19995 ft | 318 kts | 355° |
| 2026-04-17 08:30 | -40.44188 | 145.68660 | 20081 ft | 331 kts | 355° |
| 2026-04-17 08:30 | -40.41799 | 145.68640 | 20101 ft | 344 kts | 355° |
| 2026-04-17 08:31 | -40.39389 | 145.68622 | 20099 ft | 355 kts | 356° |
| 2026-04-17 08:31 | -40.36883 | 145.68605 | 20098 ft | 364 kts | 355° |
| 2026-04-17 08:31 | -40.34312 | 145.68587 | 20097 ft | 371 kts | 356° |
| 2026-04-17 08:31 | -40.31728 | 145.68570 | 20098 ft | 377 kts | 356° |
| 2026-04-17 08:32 | -40.29098 | 145.68553 | 20097 ft | 382 kts | 356° |
| 2026-04-17 08:32 | -40.26413 | 145.68536 | 20095 ft | 385 kts | 356° |
| 2026-04-17 08:32 | -40.23737 | 145.68520 | 20097 ft | 389 kts | 356° |
| 2026-04-17 08:32 | -40.20976 | 145.68503 | 20100 ft | 392 kts | 356° |
| 2026-04-17 08:33 | -40.18268 | 145.68486 | 20101 ft | 394 kts | 356° |
| 2026-04-17 08:33 | -40.15508 | 145.68469 | 20103 ft | 395 kts | 356° |
| 2026-04-17 08:33 | -40.12759 | 145.68451 | 20102 ft | 397 kts | 356° |
| 2026-04-17 08:33 | -40.09987 | 145.68434 | 20103 ft | 398 kts | 356° |
| 2026-04-17 08:34 | -40.07226 | 145.68416 | 20107 ft | 398 kts | 356° |
| 2026-04-17 08:34 | -40.04438 | 145.68398 | 20106 ft | 399 kts | 356° |
| 2026-04-17 08:34 | -40.01672 | 145.68381 | 20098 ft | 399 kts | 356° |
| 2026-04-17 08:34 | -39.98878 | 145.68356 | 20100 ft | 399 kts | 356° |
| 2026-04-17 08:35 | -39.96124 | 145.68259 | 20104 ft | 398 kts | 354° |
| 2026-04-17 08:35 | -39.93333 | 145.68137 | 20106 ft | 399 kts | 354° |
| 2026-04-17 08:35 | -39.90544 | 145.68018 | 20100 ft | 399 kts | 354° |
| 2026-04-17 08:35 | -39.87774 | 145.67900 | 20104 ft | 399 kts | 354° |
| 2026-04-17 08:36 | -39.85015 | 145.67786 | 20109 ft | 398 kts | 354° |
| 2026-04-17 08:36 | -39.82253 | 145.67673 | 20111 ft | 398 kts | 355° |
| 2026-04-17 08:36 | -39.79491 | 145.67560 | 20109 ft | 398 kts | 354° |
| 2026-04-17 08:36 | -39.76716 | 145.67447 | 20114 ft | 398 kts | 354° |
| 2026-04-17 08:37 | -39.73968 | 145.67337 | 20117 ft | 398 kts | 354° |
| 2026-04-17 08:37 | -39.71182 | 145.67224 | 20114 ft | 397 kts | 355° |
| 2026-04-17 08:37 | -39.68418 | 145.67114 | 20113 ft | 397 kts | 354° |
| 2026-04-17 08:37 | -39.65631 | 145.67003 | 20116 ft | 397 kts | 355° |
| 2026-04-17 08:38 | -39.62900 | 145.66895 | 20119 ft | 397 kts | 355° |
| 2026-04-17 08:38 | -39.60127 | 145.66785 | 20118 ft | 397 kts | 355° |
| 2026-04-17 08:38 | -39.57348 | 145.66675 | 20124 ft | 397 kts | 355° |
| 2026-04-17 08:38 | -39.54582 | 145.66565 | 20119 ft | 397 kts | 354° |
| 2026-04-17 08:39 | -39.51827 | 145.66455 | 20119 ft | 397 kts | 355° |
| 2026-04-17 08:39 | -39.49089 | 145.66347 | 20121 ft | 397 kts | 355° |
| 2026-04-17 08:39 | -39.46325 | 145.66238 | 20120 ft | 397 kts | 355° |
| 2026-04-17 08:39 | -39.43549 | 145.66128 | 20123 ft | 398 kts | 355° |
| 2026-04-17 08:40 | -39.40769 | 145.66019 | 20123 ft | 398 kts | 355° |
| 2026-04-17 08:40 | -39.38036 | 145.65912 | 20124 ft | 398 kts | 355° |
| 2026-04-17 08:40 | -39.35243 | 145.65802 | 20123 ft | 398 kts | 355° |
| 2026-04-17 08:40 | -39.32466 | 145.65692 | 20125 ft | 398 kts | 355° |
| 2026-04-17 08:41 | -39.29706 | 145.65584 | 20129 ft | 398 kts | 355° |
| 2026-04-17 08:41 | -39.26952 | 145.65475 | 20127 ft | 398 kts | 355° |
| 2026-04-17 08:41 | -39.24155 | 145.65366 | 20129 ft | 398 kts | 355° |
| 2026-04-17 08:41 | -39.21408 | 145.65259 | 20127 ft | 398 kts | 355° |
| 2026-04-17 08:42 | -39.18607 | 145.65149 | 20130 ft | 398 kts | 355° |
| 2026-04-17 08:42 | -39.15847 | 145.65041 | 20128 ft | 399 kts | 355° |
| 2026-04-17 08:42 | -39.13074 | 145.64932 | 20133 ft | 399 kts | 355° |
| 2026-04-17 08:42 | -39.10300 | 145.64824 | 20134 ft | 399 kts | 355° |
| 2026-04-17 08:43 | -39.07516 | 145.64716 | 20138 ft | 399 kts | 355° |
| 2026-04-17 08:43 | -39.04743 | 145.64607 | 20132 ft | 399 kts | 355° |
| 2026-04-17 08:43 | -39.01985 | 145.64500 | 20139 ft | 399 kts | 355° |
| 2026-04-17 08:43 | -38.99206 | 145.64392 | 20144 ft | 399 kts | 355° |
| 2026-04-17 08:44 | -38.96441 | 145.64285 | 20146 ft | 399 kts | 355° |
| 2026-04-17 08:44 | -38.93670 | 145.64177 | 20135 ft | 399 kts | 355° |
| 2026-04-17 08:44 | -38.90873 | 145.64069 | 20142 ft | 400 kts | 355° |
| 2026-04-17 08:44 | -38.88105 | 145.63962 | 20138 ft | 399 kts | 355° |
| 2026-04-17 08:45 | -38.85325 | 145.63853 | 20142 ft | 399 kts | 355° |
| 2026-04-17 08:45 | -38.82531 | 145.63745 | 20142 ft | 398 kts | 355° |
| 2026-04-17 08:45 | -38.79777 | 145.63638 | 20149 ft | 398 kts | 355° |
| 2026-04-17 08:45 | -38.77013 | 145.63531 | 20142 ft | 398 kts | 355° |
| 2026-04-17 08:46 | -38.74235 | 145.63423 | 20148 ft | 398 kts | 355° |
| 2026-04-17 08:46 | -38.71453 | 145.63316 | 20147 ft | 398 kts | 355° |
| 2026-04-17 08:46 | -38.68665 | 145.63209 | 20152 ft | 398 kts | 355° |
| 2026-04-17 08:46 | -38.65930 | 145.63104 | 20149 ft | 399 kts | 355° |
| 2026-04-17 08:47 | -38.63141 | 145.62996 | 20154 ft | 399 kts | 355° |
| 2026-04-17 08:47 | -38.60326 | 145.62888 | 20144 ft | 399 kts | 355° |
| 2026-04-17 08:47 | -38.57558 | 145.62781 | 20146 ft | 399 kts | 355° |
| 2026-04-17 08:47 | -38.54783 | 145.62674 | 20152 ft | 399 kts | 355° |
| 2026-04-17 08:48 | -38.51996 | 145.62567 | 20151 ft | 399 kts | 355° |
| 2026-04-17 08:48 | -38.49222 | 145.62456 | 20159 ft | 400 kts | 354° |
| 2026-04-17 08:48 | -38.46545 | 145.61850 | 20141 ft | 389 kts | 334° |
| 2026-04-17 08:48 | -38.44126 | 145.60347 | 19990 ft | 386 kts | 326° |
| 2026-04-17 08:49 | -38.41753 | 145.58717 | 19688 ft | 383 kts | 325° |
| 2026-04-17 08:49 | -38.39418 | 145.57100 | 19359 ft | 383 kts | 325° |
| 2026-04-17 08:49 | -38.37098 | 145.55492 | 19015 ft | 382 kts | 325° |
| 2026-04-17 08:49 | -38.34763 | 145.53877 | 18680 ft | 382 kts | 325° |
| 2026-04-17 08:50 | -38.32415 | 145.52257 | 18356 ft | 381 kts | 325° |
| 2026-04-17 08:50 | -38.30085 | 145.50652 | 18016 ft | 380 kts | 326° |
| 2026-04-17 08:50 | -38.27748 | 145.49043 | 17671 ft | 380 kts | 326° |
| 2026-04-17 08:50 | -38.25433 | 145.47452 | 17351 ft | 378 kts | 326° |
| 2026-04-17 08:51 | -38.23133 | 145.45874 | 17019 ft | 377 kts | 326° |
| 2026-04-17 08:51 | -38.20799 | 145.44273 | 16697 ft | 376 kts | 326° |
| 2026-04-17 08:51 | -38.18510 | 145.42705 | 16363 ft | 375 kts | 326° |
| 2026-04-17 08:51 | -38.16199 | 145.41124 | 16027 ft | 373 kts | 326° |
| 2026-04-17 08:52 | -38.13918 | 145.39561 | 15705 ft | 372 kts | 327° |
| 2026-04-17 08:52 | -38.11624 | 145.37996 | 15388 ft | 370 kts | 327° |
| 2026-04-17 08:52 | -38.09350 | 145.36444 | 15041 ft | 369 kts | 327° |
| 2026-04-17 08:52 | -38.07100 | 145.34909 | 14712 ft | 367 kts | 327° |
| 2026-04-17 08:53 | -38.04850 | 145.33375 | 14390 ft | 366 kts | 327° |
| 2026-04-17 08:53 | -38.02615 | 145.31851 | 14079 ft | 364 kts | 328° |
| 2026-04-17 08:53 | -38.00399 | 145.30336 | 13766 ft | 363 kts | 327° |
| 2026-04-17 08:53 | -37.98170 | 145.28777 | 13452 ft | 361 kts | 327° |
| 2026-04-17 08:54 | -37.95964 | 145.27226 | 13113 ft | 360 kts | 327° |
| 2026-04-17 08:54 | -37.93783 | 145.25697 | 12806 ft | 358 kts | 327° |
| 2026-04-17 08:54 | -37.91624 | 145.24184 | 12505 ft | 356 kts | 327° |
| 2026-04-17 08:54 | -37.89463 | 145.22673 | 12175 ft | 352 kts | 327° |
| 2026-04-17 08:55 | -37.87327 | 145.21182 | 11867 ft | 339 kts | 327° |
| 2026-04-17 08:55 | -37.85312 | 145.19774 | 11561 ft | 319 kts | 327° |
| 2026-04-17 08:55 | -37.83441 | 145.18475 | 11293 ft | 301 kts | 327° |
| 2026-04-17 08:55 | -37.81637 | 145.17265 | 11030 ft | 285 kts | 327° |
| 2026-04-17 08:56 | -37.79907 | 145.16115 | 10797 ft | 273 kts | 327° |
| 2026-04-17 08:56 | -37.78249 | 145.15012 | 10570 ft | 269 kts | 327° |
| 2026-04-17 08:56 | -37.76599 | 145.13911 | 10349 ft | 269 kts | 328° |
| 2026-04-17 08:56 | -37.74936 | 145.12805 | 10113 ft | 271 kts | 328° |
| 2026-04-17 08:57 | -37.73241 | 145.11678 | 9863 ft | 271 kts | 328° |
| 2026-04-17 08:57 | -37.71570 | 145.10586 | 9625 ft | 272 kts | 329° |
| 2026-04-17 08:57 | -37.69843 | 145.09566 | 9388 ft | 273 kts | 331° |
| 2026-04-17 08:57 | -37.68128 | 145.08571 | 9232 ft | 266 kts | 331° |
| 2026-04-17 08:58 | -37.66476 | 145.07628 | 9179 ft | 256 kts | 334° |
| 2026-04-17 08:58 | -37.64745 | 145.07306 | 9166 ft | 255 kts | 5° |
| 2026-04-17 08:58 | -37.63105 | 145.08063 | 9169 ft | 249 kts | 36° |
| 2026-04-17 08:58 | -37.61747 | 145.09424 | 9179 ft | 250 kts | 42° |
| 2026-04-17 08:59 | -37.60377 | 145.10866 | 9179 ft | 256 kts | 42° |
| 2026-04-17 08:59 | -37.58999 | 145.12323 | 9174 ft | 263 kts | 42° |
| 2026-04-17 08:59 | -37.57583 | 145.13825 | 9177 ft | 269 kts | 42° |
| 2026-04-17 08:59 | -37.56137 | 145.15359 | 9174 ft | 274 kts | 42° |
| 2026-04-17 09:00 | -37.54533 | 145.16695 | 9152 ft | 280 kts | 20° |
| 2026-04-17 09:00 | -37.52605 | 145.16869 | 9048 ft | 283 kts | 346° |
| 2026-04-17 09:00 | -37.50888 | 145.15730 | 8846 ft | 280 kts | 311° |
| 2026-04-17 09:00 | -37.49844 | 145.13672 | 8606 ft | 279 kts | 289° |
| 2026-04-17 09:01 | -37.49110 | 145.11412 | 8287 ft | 282 kts | 287° |
| 2026-04-17 09:01 | -37.48426 | 145.09180 | 7922 ft | 267 kts | 286° |
| 2026-04-17 09:01 | -37.47787 | 145.07030 | 7550 ft | 254 kts | 286° |
| 2026-04-17 09:01 | -37.47192 | 145.04987 | 7186 ft | 245 kts | 285° |
| 2026-04-17 09:02 | -37.46622 | 145.03003 | 6838 ft | 235 kts | 285° |
| 2026-04-17 09:02 | -37.46083 | 145.01121 | 6777 ft | 230 kts | 285° |
| 2026-04-17 09:02 | -37.45541 | 144.99214 | 6721 ft | 231 kts | 285° |
| 2026-04-17 09:02 | -37.44991 | 144.97287 | 6530 ft | 237 kts | 284° |
| 2026-04-17 09:03 | -37.44439 | 144.95303 | 6239 ft | 245 kts | 283° |
| 2026-04-17 09:03 | -37.44276 | 144.93248 | 5935 ft | 228 kts | 259° |
| 2026-04-17 09:03 | -37.44534 | 144.91336 | 5683 ft | 212 kts | 255° |
| 2026-04-17 09:03 | -37.44790 | 144.89581 | 5456 ft | 197 kts | 254° |
| 2026-04-17 09:04 | -37.45031 | 144.87933 | 5245 ft | 185 kts | 254° |
| 2026-04-17 09:04 | -37.45262 | 144.86357 | 5057 ft | 183 kts | 254° |
| 2026-04-17 09:04 | -37.45491 | 144.84792 | 4859 ft | 180 kts | 254° |
| 2026-04-17 09:04 | -37.45715 | 144.83249 | 4666 ft | 178 kts | 253° |
| 2026-04-17 09:05 | -37.45921 | 144.81708 | 4461 ft | 177 kts | 258° |
| 2026-04-17 09:05 | -37.46086 | 144.80196 | 4245 ft | 175 kts | 256° |
| 2026-04-17 09:05 | -37.46497 | 144.78832 | 3956 ft | 165 kts | 220° |
| 2026-04-17 09:05 | -37.47540 | 144.78406 | 3568 ft | 164 kts | 168° |
| 2026-04-17 09:06 | -37.48466 | 144.79242 | 3182 ft | 176 kts | 136° |
| 2026-04-17 09:06 | -37.49326 | 144.80341 | 2832 ft | 167 kts | 148° |
| 2026-04-17 09:06 | -37.50323 | 144.80798 | 2730 ft | 150 kts | 171° |
| 2026-04-17 09:06 | -37.51353 | 144.81030 | 2643 ft | 152 kts | 174° |
| 2026-04-17 09:07 | -37.52417 | 144.80943 | 2548 ft | 153 kts | 192° |
| 2026-04-17 09:07 | -37.53483 | 144.80971 | 2453 ft | 155 kts | 170° |
| 2026-04-17 09:07 | -37.54553 | 144.81310 | 2293 ft | 161 kts | 167° |
| 2026-04-17 09:07 | -37.55603 | 144.81624 | 2144 ft | 143 kts | 171° |
| 2026-04-17 09:08 | -37.56469 | 144.81836 | 2084 ft | 111 kts | 171° |
| 2026-04-17 09:08 | -37.57200 | 144.82021 | 1952 ft | 108 kts | 174° |
| 2026-04-17 09:08 | -37.57940 | 144.82130 | 1859 ft | 106 kts | 175° |
| 2026-04-17 09:08 | -37.58643 | 144.82301 | 1693 ft | 100 kts | 171° |
| 2026-04-17 09:09 | -37.59334 | 144.82475 | 1522 ft | 100 kts | 177° |
| 2026-04-17 09:09 | -37.60056 | 144.82520 | 1429 ft | 110 kts | 179° |
| 2026-04-17 09:09 | -37.60847 | 144.82657 | 1336 ft | 118 kts | 171° |
| 2026-04-17 09:09 | -37.61678 | 144.82843 | 1288 ft | 122 kts | 173° |
| 2026-04-17 09:10 | -37.63362 | 144.83139 | 990 ft | 125 kts | 172° |
| 2026-04-17 09:10 | -37.64230 | 144.83304 | 755 ft | 126 kts | 173° |
| 2026-04-17 09:10 | -37.65117 | 144.83462 | 542 ft | 132 kts | 173° |
| 2026-04-17 09:11 | -37.66009 | 144.83626 | 429 ft | 123 kts | 173° |
| 2026-04-17 09:11 | -37.66651 | 144.83740 | 406 ft | 64 kts | 172° |
| 2026-04-17 09:11 | -37.67046 | 144.83873 | 390 ft | 42 kts | 145° |